Time;durP1;ratioP1;P1;durP2;ratioP2;P2;SDS_P1;SDS_P2;PMS_P1;PMS_P2;Temp;Humidity;BMP_temperature;BMP_pressure;BME280_temperature;BME280_humidity;BME280_pressure;Samples;Min_cycle;Max_cycle;Signal;HPM_P1;HPM_P2
2022/07/31 00:01:45;;;;;;;;;;;17.70;99.90;;;;;;6186397;23;19912;-78
2022/07/31 00:04:11;;;;;;;;;;;17.80;99.90;;;;;;6135107;23;19912;-77
2022/07/31 00:06:43;;;;;;;;;;;17.80;99.90;;;;;;6159924;23;19912;-76
2022/07/31 00:09:09;;;;;;;;;;;17.80;99.90;;;;;;6186228;23;19912;-78
2022/07/31 00:11:34;;;;;;;;;;;17.80;99.90;;;;;;6134796;23;20231;-76
2022/07/31 00:14:00;;;;;;;;;;;17.80;99.90;;;;;;6135051;23;19987;-78
2022/07/31 00:16:26;;;;;;;;;;;17.80;99.90;;;;;;6159703;23;19912;-79
2022/07/31 00:18:51;;;;;;;;;;;17.80;99.90;;;;;;6135176;23;19908;-77
2022/07/31 00:21:17;;;;;;;;;;;17.80;99.90;;;;;;6137283;23;19912;-78
2022/07/31 00:23:43;;;;;;;;;;;17.80;99.90;;;;;;6187944;23;19935;-78
2022/07/31 00:26:11;;;;;;;;;;;17.80;99.90;;;;;;6161428;23;19912;-77
2022/07/31 00:28:37;;;;;;;;;;;17.80;99.90;;;;;;6160089;23;20327;-77
2022/07/31 00:31:02;;;;;;;;;;;17.80;99.90;;;;;;6161974;23;19963;-78
2022/07/31 00:33:28;;;;;;;;;;;17.80;99.90;;;;;;6136829;23;19971;-77
2022/07/31 00:35:54;;;;;;;;;;;17.80;99.90;;;;;;6137146;23;19947;-76
2022/07/31 00:38:19;;;;;;;;;;;17.80;99.90;;;;;;6136901;23;20287;-78
2022/07/31 00:40:46;;;;;;;;;;;17.80;99.90;;;;;;6160703;23;19935;-78
2022/07/31 00:43:13;;;;;;;;;;;17.80;99.90;;;;;;6159866;23;19919;-77
2022/07/31 00:45:39;;;;;;;;;;;17.80;99.90;;;;;;6160257;23;19912;-78
2022/07/31 00:48:04;;;;;;;;;;;17.80;99.90;;;;;;6136823;23;19992;-78
2022/07/31 00:50:30;;;;;;;;;;;17.90;99.90;;;;;;6136662;23;19912;-77
2022/07/31 00:52:56;;;;;;;;;;;17.80;99.90;;;;;;6137071;23;19966;-77
2022/07/31 00:55:21;;;;;;;;;;;17.80;99.90;;;;;;6161249;23;19916;-78
2022/07/31 00:57:47;;;;;;;;;;;17.80;99.90;;;;;;6137282;23;19912;-77
2022/07/31 01:00:16;;;;;;;;;;;17.80;99.90;;;;;;6161272;23;19996;-76
2022/07/31 01:02:42;;;;;;;;;;;17.90;99.90;;;;;;6136704;23;19915;-77
2022/07/31 01:05:10;;;;;;;;;;;17.80;99.90;;;;;;6161168;23;20002;-78
2022/07/31 01:07:36;;;;;;;;;;;17.80;99.90;;;;;;6187767;23;19920;-77
2022/07/31 01:10:04;;;;;;;;;;;17.80;99.90;;;;;;6161344;23;20394;-76
2022/07/31 01:12:37;;;;;;;;;;;17.80;99.90;;;;;;6136957;23;19974;-77
2022/07/31 01:15:11;;;;;;;;;;;17.80;99.90;;;;;;6161414;23;19920;-77
2022/07/31 01:17:37;;;;;;;;;;;17.90;99.90;;;;;;6136553;23;19923;-78
2022/07/31 01:20:03;;;;;;;;;;;17.80;99.90;;;;;;6136661;23;20303;-77
2022/07/31 01:22:47;;;;;;;;;;;18.00;99.90;;;;;;6161328;23;19912;-78
2022/07/31 01:25:38;;;;;;;;;;;17.90;99.90;;;;;;6136287;23;20307;-78
2022/07/31 01:28:06;;;;;;;;;;;17.80;99.90;;;;;;6161491;23;20295;-77
2022/07/31 01:30:34;;;;;;;;;;;17.80;99.90;;;;;;6161253;23;19912;-77
2022/07/31 01:33:07;;;;;;;;;;;17.70;99.90;;;;;;6135972;23;19966;-78
2022/07/31 01:35:37;;;;;;;;;;;17.80;99.90;;;;;;6136607;23;20002;-78
2022/07/31 01:38:17;;;;;;;;;;;17.70;99.90;;;;;;6136721;23;20230;-78
2022/07/31 01:40:45;;;;;;;;;;;17.80;99.90;;;;;;6136938;23;19912;-78
2022/07/31 01:43:16;;;;;;;;;;;17.80;99.90;;;;;;6160999;23;19942;-79
2022/07/31 01:45:42;;;;;;;;;;;17.80;99.90;;;;;;6136645;23;19962;-77
2022/07/31 01:48:15;;;;;;;;;;;17.70;99.90;;;;;;6135982;23;19916;-78
2022/07/31 01:50:49;;;;;;;;;;;17.80;99.90;;;;;;6135806;23;19919;-78
2022/07/31 01:53:19;;;;;;;;;;;17.70;99.90;;;;;;6135067;23;19966;-77
2022/07/31 01:55:46;;;;;;;;;;;17.70;99.90;;;;;;6136140;23;19912;-78
2022/07/31 01:58:12;;;;;;;;;;;17.70;99.90;;;;;;6161058;23;19912;-76
2022/07/31 02:00:38;;;;;;;;;;;17.60;99.90;;;;;;6111317;23;19967;-77
2022/07/31 02:03:05;;;;;;;;;;;17.70;99.90;;;;;;6160776;23;20230;-78
2022/07/31 02:05:37;;;;;;;;;;;17.70;99.90;;;;;;6160389;23;19912;-79
2022/07/31 02:08:03;;;;;;;;;;;17.70;99.90;;;;;;6136638;23;19908;-78
2022/07/31 02:10:30;;;;;;;;;;;17.60;99.90;;;;;;6160531;23;19969;-79
2022/07/31 02:12:57;;;;;;;;;;;17.60;99.90;;;;;;6160115;23;20282;-77
2022/07/31 02:15:25;;;;;;;;;;;17.60;99.90;;;;;;6136603;23;19915;-77
2022/07/31 02:17:53;;;;;;;;;;;17.50;99.90;;;;;;6135668;23;19908;-76
2022/07/31 02:20:19;;;;;;;;;;;17.60;99.90;;;;;;6136053;23;19916;-77
2022/07/31 02:22:47;;;;;;;;;;;17.50;99.90;;;;;;6161211;23;19908;-78
2022/07/31 02:25:13;;;;;;;;;;;17.40;99.90;;;;;;6160563;23;19912;-78
2022/07/31 02:27:39;;;;;;;;;;;17.30;99.90;;;;;;6135878;23;19908;-78
2022/07/31 02:30:07;;;;;;;;;;;17.30;99.90;;;;;;6135774;23;19983;-78
2022/07/31 02:32:34;;;;;;;;;;;17.30;99.90;;;;;;6160627;23;19915;-77
2022/07/31 02:35:00;;;;;;;;;;;17.30;99.90;;;;;;6135766;23;19974;-77
2022/07/31 02:37:29;;;;;;;;;;;17.30;99.90;;;;;;6159883;23;20012;-77
2022/07/31 02:39:55;;;;;;;;;;;17.20;99.90;;;;;;6135087;23;19935;-78
2022/07/31 02:42:21;;;;;;;;;;;17.20;99.90;;;;;;6159368;23;20374;-77
2022/07/31 02:44:47;;;;;;;;;;;17.20;99.90;;;;;;6133580;23;19946;-77
2022/07/31 02:47:16;;;;;;;;;;;17.10;99.90;;;;;;6135908;23;20330;-77
2022/07/31 02:49:42;;;;;;;;;;;17.10;99.90;;;;;;6160627;23;19908;-77
2022/07/31 02:52:13;;;;;;;;;;;17.10;99.90;;;;;;6135883;23;20022;-78
2022/07/31 02:54:39;;;;;;;;;;;17.20;99.90;;;;;;6111904;23;19930;-78
2022/07/31 02:57:05;;;;;;;;;;;17.10;99.90;;;;;;6135413;23;19908;-79
2022/07/31 02:59:31;;;;;;;;;;;17.20;99.90;;;;;;6135805;23;19958;-76
2022/07/31 03:01:57;;;;;;;;;;;17.10;99.90;;;;;;6135531;23;19912;-78
2022/07/31 03:04:23;;;;;;;;;;;17.10;99.90;;;;;;6135546;23;19912;-77
2022/07/31 03:06:49;;;;;;;;;;;17.00;99.90;;;;;;6136348;23;19987;-78
2022/07/31 03:09:15;;;;;;;;;;;17.10;99.90;;;;;;6186627;23;19912;-79
2022/07/31 03:11:41;;;;;;;;;;;17.10;99.90;;;;;;6160322;23;19919;-77
2022/07/31 03:14:07;;;;;;;;;;;17.00;99.90;;;;;;6134995;23;19916;-78
2022/07/31 03:16:33;;;;;;;;;;;17.00;99.90;;;;;;6135141;23;19983;-78
2022/07/31 03:18:59;;;;;;;;;;;17.00;99.90;;;;;;6135265;23;19944;-78
2022/07/31 03:21:25;;;;;;;;;;;17.00;99.90;;;;;;6135510;23;20035;-78
2022/07/31 03:23:51;;;;;;;;;;;17.00;99.90;;;;;;6159857;23;19935;-78
2022/07/31 03:26:17;;;;;;;;;;;17.00;99.90;;;;;;6134925;23;20310;-77
2022/07/31 03:28:42;;;;;;;;;;;17.00;99.90;;;;;;6160285;23;19915;-77
2022/07/31 03:31:09;;;;;;;;;;;17.00;99.90;;;;;;6160280;23;19908;-78
2022/07/31 03:33:34;;;;;;;;;;;17.00;99.90;;;;;;6159992;23;19916;-78
2022/07/31 03:36:00;;;;;;;;;;;17.00;99.90;;;;;;6135887;23;19916;-77
2022/07/31 03:38:25;;;;;;;;;;;17.00;99.90;;;;;;6135417;23;19951;-76
2022/07/31 03:40:51;;;;;;;;;;;17.10;99.90;;;;;;6159758;23;20277;-77
2022/07/31 03:43:18;;;;;;;;;;;17.10;99.90;;;;;;6159333;23;19963;-77
2022/07/31 03:45:44;;;;;;;;;;;17.10;99.90;;;;;;6159735;23;19931;-78
2022/07/31 03:48:10;;;;;;;;;;;17.10;99.90;;;;;;6160298;23;20277;-76
2022/07/31 03:50:39;;;;;;;;;;;17.20;99.90;;;;;;6135936;23;19915;-78
2022/07/31 03:53:06;;;;;;;;;;;17.20;99.90;;;;;;6135220;23;19908;-77
2022/07/31 03:55:32;;;;;;;;;;;17.20;99.90;;;;;;6161338;23;20286;-76
2022/07/31 03:58:02;;;;;;;;;;;17.20;99.90;;;;;;6162204;23;20223;-79
2022/07/31 04:00:28;;;;;;;;;;;17.20;99.90;;;;;;6137491;23;19919;-77
2022/07/31 04:02:55;;;;;;;;;;;17.20;99.90;;;;;;6137095;23;19908;-76
2022/07/31 04:05:20;;;;;;;;;;;17.20;99.90;;;;;;6136722;23;19912;-77
2022/07/31 04:07:46;;;;;;;;;;;17.30;99.90;;;;;;6137620;23;20270;-77
2022/07/31 04:10:12;;;;;;;;;;;17.40;99.90;;;;;;6136842;23;20259;-78
2022/07/31 04:12:38;;;;;;;;;;;17.30;99.90;;;;;;6161396;23;19919;-79
2022/07/31 04:15:04;;;;;;;;;;;17.30;99.90;;;;;;6161886;23;19931;-76
2022/07/31 04:17:29;;;;;;;;;;;17.30;99.90;;;;;;6161862;23;19987;-76
2022/07/31 04:20:04;;;;;;;;;;;17.30;99.90;;;;;;6138621;23;19919;-76
2022/07/31 04:22:30;;;;;;;;;;;17.30;99.90;;;;;;6161898;23;19918;-77
2022/07/31 04:24:55;;;;;;;;;;;17.30;99.90;;;;;;6161867;23;20020;-77
2022/07/31 04:27:21;;;;;;;;;;;17.30;99.90;;;;;;6162103;23;19915;-76
2022/07/31 04:29:48;;;;;;;;;;;17.20;99.90;;;;;;6137071;23;20235;-77
2022/07/31 04:32:13;;;;;;;;;;;17.30;99.90;;;;;;6135803;23;19912;-78
2022/07/31 04:34:39;;;;;;;;;;;17.30;99.90;;;;;;6136836;23;19915;-78
2022/07/31 04:37:05;;;;;;;;;;;17.30;99.90;;;;;;6136384;23;19908;-77
2022/07/31 04:39:33;;;;;;;;;;;17.30;99.90;;;;;;6160928;23;20231;-77
2022/07/31 04:41:58;;;;;;;;;;;17.40;99.90;;;;;;6160948;23;19912;-79
2022/07/31 04:44:27;;;;;;;;;;;17.40;99.90;;;;;;6136209;23;19908;-77
2022/07/31 04:46:56;;;;;;;;;;;17.40;99.90;;;;;;6160597;23;20234;-78
2022/07/31 04:49:22;;;;;;;;;;;17.40;99.90;;;;;;6161785;23;19915;-77
2022/07/31 04:51:48;;;;;;;;;;;17.50;99.90;;;;;;6161257;23;19951;-77
2022/07/31 04:54:14;;;;;;;;;;;17.50;99.90;;;;;;6161213;23;19908;-77
2022/07/31 04:56:42;;;;;;;;;;;17.60;99.90;;;;;;6162253;23;19967;-76
2022/07/31 04:59:15;;;;;;;;;;;17.70;99.90;;;;;;6136914;23;19912;-78
2022/07/31 05:01:43;;;;;;;;;;;17.70;99.90;;;;;;6161312;23;19919;-77
2022/07/31 05:04:09;;;;;;;;;;;17.70;99.90;;;;;;6160865;23;20315;-77
2022/07/31 05:06:36;;;;;;;;;;;17.70;99.90;;;;;;6136581;23;19912;-78
2022/07/31 05:09:07;;;;;;;;;;;17.80;99.90;;;;;;6161164;23;19908;-77
2022/07/31 05:11:34;;;;;;;;;;;17.70;99.90;;;;;;6136928;23;19908;-78
2022/07/31 05:14:00;;;;;;;;;;;17.70;99.90;;;;;;6136421;23;19914;-76
2022/07/31 05:16:27;;;;;;;;;;;17.80;99.90;;;;;;6136904;23;19912;-79
2022/07/31 05:18:53;;;;;;;;;;;17.90;99.90;;;;;;6160778;23;20327;-77
2022/07/31 05:21:19;;;;;;;;;;;17.80;99.90;;;;;;6136531;23;19912;-72
2022/07/31 05:23:45;;;;;;;;;;;17.90;99.90;;;;;;6161271;23;19919;-72
2022/07/31 05:26:11;;;;;;;;;;;17.90;99.90;;;;;;6161002;23;19998;-72
2022/07/31 05:28:37;;;;;;;;;;;17.90;99.90;;;;;;6161472;23;19983;-70
2022/07/31 05:31:03;;;;;;;;;;;17.90;99.90;;;;;;6161239;23;20353;-71
2022/07/31 05:33:32;;;;;;;;;;;17.90;99.90;;;;;;6161215;23;19912;-72
2022/07/31 05:35:58;;;;;;;;;;;17.90;99.90;;;;;;6161147;23;20385;-72
2022/07/31 05:38:24;;;;;;;;;;;17.90;99.90;;;;;;6160941;23;19916;-72
2022/07/31 05:40:49;;;;;;;;;;;18.00;99.90;;;;;;6186384;23;19912;-72
2022/07/31 05:43:15;;;;;;;;;;;17.90;99.90;;;;;;6160072;23;19991;-71
2022/07/31 05:45:40;;;;;;;;;;;18.00;99.90;;;;;;6159769;23;19912;-72
2022/07/31 05:48:06;;;;;;;;;;;18.00;99.90;;;;;;6186183;23;19916;-73
2022/07/31 05:50:35;;;;;;;;;;;18.00;99.90;;;;;;6135367;23;19912;-72
2022/07/31 05:53:00;;;;;;;;;;;18.10;99.90;;;;;;6136037;23;19995;-70
2022/07/31 05:55:26;;;;;;;;;;;18.10;99.90;;;;;;6160591;23;19955;-70
2022/07/31 05:57:52;;;;;;;;;;;18.20;99.90;;;;;;6111962;23;19916;-72
2022/07/31 06:00:18;;;;;;;;;;;18.20;99.90;;;;;;6136474;23;19919;-73
2022/07/31 06:02:44;;;;;;;;;;;18.20;99.90;;;;;;6136500;23;20039;-72
2022/07/31 06:05:09;;;;;;;;;;;18.30;99.90;;;;;;6160526;23;19920;-73
2022/07/31 06:07:35;;;;;;;;;;;18.20;99.90;;;;;;6187339;23;19912;-73
2022/07/31 06:10:01;;;;;;;;;;;18.40;99.90;;;;;;6160902;23;20303;-73
2022/07/31 06:12:26;;;;;;;;;;;18.40;99.90;;;;;;6160758;23;19916;-72
2022/07/31 06:14:52;;;;;;;;;;;18.40;99.90;;;;;;6187129;23;19971;-73
2022/07/31 06:17:17;;;;;;;;;;;18.30;99.90;;;;;;6161013;23;19912;-73
2022/07/31 06:19:43;;;;;;;;;;;18.40;99.90;;;;;;6160698;23;19958;-73
2022/07/31 06:22:09;;;;;;;;;;;18.40;99.90;;;;;;6187196;23;19918;-73
2022/07/31 06:24:34;;;;;;;;;;;18.40;99.90;;;;;;6160667;23;19916;-72
2022/07/31 06:27:00;;;;;;;;;;;18.50;99.90;;;;;;6160758;23;19912;-72
2022/07/31 06:29:29;;;;;;;;;;;18.50;99.90;;;;;;6160648;23;19916;-72
2022/07/31 06:31:55;;;;;;;;;;;18.50;99.90;;;;;;6135960;23;19951;-72
2022/07/31 06:34:21;;;;;;;;;;;18.60;99.90;;;;;;6136222;23;19912;-72
2022/07/31 06:36:47;;;;;;;;;;;18.70;99.90;;;;;;6136208;23;20338;-73
2022/07/31 06:39:14;;;;;;;;;;;18.70;99.90;;;;;;6135807;23;19959;-72
2022/07/31 06:41:46;;;;;;;;;;;18.80;99.90;;;;;;6160370;23;19912;-72
2022/07/31 06:44:12;;;;;;;;;;;18.90;99.90;;;;;;6160578;23;19919;-72
2022/07/31 06:46:38;;;;;;;;;;;19.00;99.90;;;;;;6160206;23;19912;-73
2022/07/31 06:49:04;;;;;;;;;;;19.10;99.90;;;;;;6135813;23;19912;-73
2022/07/31 06:51:29;;;;;;;;;;;19.10;99.90;;;;;;6160725;23;19953;-72
2022/07/31 06:53:55;;;;;;;;;;;19.20;99.90;;;;;;6135971;23;19912;-72
2022/07/31 06:56:21;;;;;;;;;;;19.30;99.90;;;;;;6186661;23;20311;-72
2022/07/31 06:58:47;;;;;;;;;;;19.40;99.90;;;;;;6160512;23;19912;-72
2022/07/31 07:01:13;;;;;;;;;;;19.50;99.90;;;;;;6186240;23;19919;-73
2022/07/31 07:03:38;;;;;;;;;;;19.50;99.90;;;;;;6186834;23;19912;-73
2022/07/31 07:06:04;;;;;;;;;;;19.50;99.90;;;;;;6135599;23;20196;-76
2022/07/31 07:12:03;;;;;;;;;;;19.60;99.90;;;;;;6162846;23;19912;-72
2022/07/31 07:25:01;;;;;;;;;;;19.90;99.90;;;;;;6186004;23;19907;-77
2022/07/31 07:34:10;;;;;;;;;;;19.90;99.90;;;;;;6184924;23;20230;-74
2022/07/31 07:36:36;;;;;;;;;;;19.90;99.90;;;;;;6158649;23;19911;-78
2022/07/31 07:39:47;;;;;;;;;;;19.90;99.90;;;;;;6158954;23;19939;-74
2022/07/31 07:42:15;;;;;;;;;;;20.00;99.90;;;;;;6158175;23;20311;-73
2022/07/31 07:45:33;;;;;;;;;;;20.00;99.90;;;;;;6158791;23;19923;-74
2022/07/31 07:48:58;;;;;;;;;;;20.00;99.90;;;;;;5979928;24;20249;-73
2022/07/31 07:55:15;;;;;;;;;;;;;;;;;;;;;
2022/07/31 07:57:44;;;;;;;;;;;19.90;99.90;;;;;;5951181;24;19911;-74
2022/07/31 08:00:10;;;;;;;;;;;19.90;99.90;;;;;;5928720;24;19921;-72
2022/07/31 08:09:43;;;;;;;;;;;19.80;99.90;;;;;;5947276;24;19976;-76
2022/07/31 08:23:25;;;;;;;;;;;19.60;99.90;;;;;;5874898;24;19918;-75
2022/07/31 08:26:18;;;;;;;;;;;19.70;99.90;;;;;;5998983;23;20105;-75
2022/07/31 09:42:11;;;;;;;;;;;19.50;99.90;;;;;;6187425;23;19912;-75
2022/07/31 09:56:37;;;;;;;;;;;19.60;99.90;;;;;;6180549;22;19912;-77
2022/07/31 09:59:41;;;;;;;;;;;19.50;99.90;;;;;;6135596;23;19986;-76
2022/07/31 10:15:48;;;;;;;;;;;19.40;99.90;;;;;;5925967;24;19910;-72
2022/07/31 10:18:48;;;;;;;;;;;19.40;99.90;;;;;;5926538;24;19911;-74
2022/07/31 10:21:23;;;;;;;;;;;19.40;99.90;;;;;;5946621;24;20007;-77
2022/07/31 10:23:49;;;;;;;;;;;19.40;99.90;;;;;;5996323;23;19910;-76
2022/07/31 10:26:18;;;;;;;;;;;19.40;99.90;;;;;;6042923;23;19909;-76
2022/07/31 10:28:43;;;;;;;;;;;19.40;99.90;;;;;;6071651;23;19988;-77
2022/07/31 10:31:11;;;;;;;;;;;19.30;99.90;;;;;;6159592;23;19915;-76
2022/07/31 10:33:37;;;;;;;;;;;19.30;99.90;;;;;;6159383;23;19915;-74
2022/07/31 10:36:03;;;;;;;;;;;19.20;99.90;;;;;;6134652;23;19908;-76
2022/07/31 10:38:40;;;;;;;;;;;19.10;99.90;;;;;;6134776;23;19908;-75
2022/07/31 10:41:30;;;;;;;;;;;19.20;99.90;;;;;;6160312;23;19916;-76
2022/07/31 10:43:58;;;;;;;;;;;19.10;99.90;;;;;;6135794;23;19939;-75
2022/07/31 10:46:28;;;;;;;;;;;19.10;99.90;;;;;;6160065;23;19915;-76
2022/07/31 10:48:54;;;;;;;;;;;19.20;99.90;;;;;;6135777;23;20312;-75
2022/07/31 10:51:21;;;;;;;;;;;19.20;99.90;;;;;;6160721;23;19982;-76
2022/07/31 10:53:57;;;;;;;;;;;19.10;99.90;;;;;;6160085;23;19912;-76
2022/07/31 10:56:39;;;;;;;;;;;19.20;99.90;;;;;;6159993;23;19966;-79
2022/07/31 10:59:06;;;;;;;;;;;19.10;99.90;;;;;;6162249;23;19907;-77
2022/07/31 11:01:32;;;;;;;;;;;19.10;99.90;;;;;;6136099;23;19912;-77
2022/07/31 11:03:59;;;;;;;;;;;19.10;99.90;;;;;;6135092;23;20333;-75
2022/07/31 11:06:43;;;;;;;;;;;19.00;99.90;;;;;;6159952;23;19908;-76
2022/07/31 11:09:20;;;;;;;;;;;19.10;99.90;;;;;;6135945;23;20307;-75
2022/07/31 11:11:45;;;;;;;;;;;19.10;99.90;;;;;;6135882;23;20265;-77
2022/07/31 11:14:11;;;;;;;;;;;19.10;99.90;;;;;;6160182;23;19943;-76
2022/07/31 11:16:48;;;;;;;;;;;19.10;99.90;;;;;;6135782;23;20219;-76
2022/07/31 11:19:22;;;;;;;;;;;19.10;99.90;;;;;;6136011;23;19961;-79
2022/07/31 11:26:05;;;;;;;;;;;19.10;99.90;;;;;;6161494;23;19908;-79
2022/07/31 11:28:47;;;;;;;;;;;19.10;99.90;;;;;;6135448;23;19908;-78
2022/07/31 11:34:48;;;;;;;;;;;19.30;99.90;;;;;;6182487;23;19939;-77
2022/07/31 11:37:30;;;;;;;;;;;19.40;99.90;;;;;;6159502;23;19963;-80
2022/07/31 11:40:11;;;;;;;;;;;19.60;99.90;;;;;;6143114;23;20323;-77
2022/07/31 11:43:02;;;;;;;;;;;;;;;;;;;;;
2022/07/31 11:45:44;;;;;;;;;;;19.60;99.90;;;;;;6159059;23;19907;-77
2022/07/31 11:48:13;;;;;;;;;;;19.70;99.90;;;;;;6134997;23;20362;-77
2022/07/31 11:50:44;;;;;;;;;;;19.80;99.90;;;;;;6135514;23;19908;-78
2022/07/31 11:53:15;;;;;;;;;;;19.90;99.90;;;;;;6112822;23;20226;-77
2022/07/31 11:55:45;;;;;;;;;;;20.00;99.90;;;;;;6134862;23;20299;-76
2022/07/31 11:58:12;;;;;;;;;;;20.00;99.90;;;;;;6135304;23;19914;-76
2022/07/31 12:00:45;;;;;;;;;;;20.00;99.90;;;;;;6135075;23;20231;-74
2022/07/31 12:03:35;;;;;;;;;;;20.00;99.90;;;;;;6136722;23;19918;-76
2022/07/31 12:06:04;;;;;;;;;;;19.90;99.90;;;;;;6135177;23;19943;-75
2022/07/31 12:08:39;;;;;;;;;;;19.80;99.90;;;;;;6160148;23;19908;-76
2022/07/31 12:11:12;;;;;;;;;;;19.80;99.90;;;;;;6136225;23;19959;-78
2022/07/31 12:13:46;;;;;;;;;;;19.70;99.90;;;;;;6135367;23;20231;-76
2022/07/31 12:16:17;;;;;;;;;;;19.80;99.90;;;;;;6135389;23;19982;-74
2022/07/31 12:18:58;;;;;;;;;;;19.90;99.90;;;;;;6137020;23;19916;-77
2022/07/31 12:21:38;;;;;;;;;;;20.00;99.90;;;;;;6161260;23;19977;-76
2022/07/31 12:24:16;;;;;;;;;;;20.10;99.90;;;;;;6137305;23;19931;-76
2022/07/31 12:26:51;;;;;;;;;;;20.20;99.90;;;;;;6161090;23;19912;-76
2022/07/31 12:29:29;;;;;;;;;;;20.20;99.90;;;;;;6136672;23;19908;-76
2022/07/31 12:31:57;;;;;;;;;;;20.20;99.90;;;;;;6137260;23;19908;-75
2022/07/31 12:34:29;;;;;;;;;;;20.20;99.90;;;;;;6161779;23;19915;-76
2022/07/31 12:37:01;;;;;;;;;;;20.20;99.90;;;;;;6137695;23;19914;-75
2022/07/31 12:39:32;;;;;;;;;;;20.30;99.90;;;;;;6132809;23;19915;-76
2022/07/31 12:42:09;;;;;;;;;;;20.40;99.90;;;;;;6137187;23;19908;-75
2022/07/31 12:44:46;;;;;;;;;;;20.50;99.90;;;;;;6161164;23;19916;-75
2022/07/31 12:47:18;;;;;;;;;;;20.60;99.90;;;;;;6161310;23;20319;-77
2022/07/31 12:49:50;;;;;;;;;;;20.60;99.90;;;;;;6137375;23;19958;-76
2022/07/31 12:52:19;;;;;;;;;;;20.70;99.90;;;;;;6136981;23;19916;-76
2022/07/31 12:54:49;;;;;;;;;;;20.60;99.90;;;;;;6160835;23;19912;-77
2022/07/31 12:57:42;;;;;;;;;;;20.60;99.90;;;;;;6137649;23;19912;-75
2022/07/31 13:00:27;;;;;;;;;;;20.50;99.90;;;;;;6113802;23;19912;-75
2022/07/31 13:03:11;;;;;;;;;;;20.50;99.90;;;;;;6187340;23;20334;-76
2022/07/31 13:06:08;;;;;;;;;;;;;;;;;;;;;
2022/07/31 13:08:42;;;;;;;;;;;20.30;99.90;;;;;;6161028;23;19908;-76
2022/07/31 13:11:23;;;;;;;;;;;20.30;99.90;;;;;;6161190;23;19974;-76
2022/07/31 13:14:16;;;;;;;;;;;20.20;99.90;;;;;;6161020;23;20274;-76
2022/07/31 13:17:11;;;;;;;;;;;20.10;99.90;;;;;;6125420;23;19912;-76
2022/07/31 13:20:07;;;;;;;;;;;20.20;99.90;;;;;;6117031;23;20272;-76
2022/07/31 13:23:04;;;;;;;;;;;20.10;99.90;;;;;;6078717;23;19909;-76
2022/07/31 13:25:52;;;;;;;;;;;20.00;99.90;;;;;;6100493;23;19908;-76
2022/07/31 13:28:32;;;;;;;;;;;19.90;99.90;;;;;;6077245;23;19935;-77
2022/07/31 13:31:34;;;;;;;;;;;19.90;99.90;;;;;;6101066;23;20081;-77
2022/07/31 13:37:36;;;;;;;;;;;19.90;99.90;;;;;;6095831;23;19916;-77
2022/07/31 13:40:10;;;;;;;;;;;19.90;99.90;;;;;;6045059;23;19936;-76
2022/07/31 13:42:57;;;;;;;;;;;20.00;99.90;;;;;;6068700;23;19914;-77
2022/07/31 13:45:32;;;;;;;;;;;20.00;99.90;;;;;;6071643;23;20312;-78
2022/07/31 13:48:19;;;;;;;;;;;20.00;99.90;;;;;;6086236;23;19948;-77
2022/07/31 13:50:51;;;;;;;;;;;20.10;99.90;;;;;;6077007;23;20391;-77
2022/07/31 13:53:48;;;;;;;;;;;20.30;99.90;;;;;;6093586;23;19909;-77
2022/07/31 13:59:19;;;;;;;;;;;;;;;;;;;;;
2022/07/31 14:01:50;;;;;;;;;;;20.70;99.90;;;;;;6099665;23;19917;-76
2022/07/31 14:04:30;;;;;;;;;;;20.60;99.90;;;;;;6099910;23;19908;-77
2022/07/31 14:07:25;;;;;;;;;;;20.60;99.90;;;;;;6076517;23;19988;-75
2022/07/31 14:10:11;;;;;;;;;;;20.40;99.90;;;;;;6129489;23;19915;-76
2022/07/31 14:12:59;;;;;;;;;;;20.40;99.90;;;;;;6129866;23;20052;-77
2022/07/31 14:15:34;;;;;;;;;;;20.50;99.90;;;;;;6128831;23;20347;-77
2022/07/31 14:18:45;;;;;;;;;;;20.70;99.90;;;;;;6109406;23;19908;-76
2022/07/31 14:21:20;;;;;;;;;;;20.90;99.90;;;;;;6154526;23;20275;-77
2022/07/31 14:23:55;;;;;;;;;;;21.00;99.90;;;;;;6186490;23;19908;-75
2022/07/31 14:26:23;;;;;;;;;;;21.00;99.90;;;;;;6160389;23;19958;-76
2022/07/31 14:29:00;;;;;;;;;;;21.10;99.90;;;;;;6134533;23;19908;-75
2022/07/31 14:31:28;;;;;;;;;;;21.20;99.90;;;;;;6135609;23;19908;-75
2022/07/31 14:33:56;;;;;;;;;;;21.30;99.90;;;;;;6111025;23;19912;-75
2022/07/31 14:36:24;;;;;;;;;;;21.60;99.90;;;;;;6136421;23;20262;-75
2022/07/31 14:38:52;;;;;;;;;;;21.80;99.90;;;;;;6111290;23;19983;-75
2022/07/31 14:41:28;;;;;;;;;;;21.70;99.90;;;;;;6136082;23;19999;-75
2022/07/31 14:43:54;;;;;;;;;;;21.60;99.90;;;;;;6135322;23;19908;-76
2022/07/31 14:46:23;;;;;;;;;;;21.60;99.90;;;;;;6135816;23;19958;-75
2022/07/31 14:49:11;;;;;;;;;;;21.60;99.90;;;;;;6136765;23;19970;-75
2022/07/31 14:51:39;;;;;;;;;;;21.60;99.90;;;;;;6135006;23;19908;-75
2022/07/31 14:54:08;;;;;;;;;;;21.60;99.90;;;;;;6135436;23;19908;-75
2022/07/31 14:56:36;;;;;;;;;;;21.40;99.90;;;;;;6135370;23;20204;-75
2022/07/31 14:59:07;;;;;;;;;;;21.30;99.90;;;;;;6135125;23;20023;-75
2022/07/31 15:01:33;;;;;;;;;;;21.20;99.90;;;;;;6135141;23;20222;-76
2022/07/31 15:04:02;;;;;;;;;;;21.00;99.90;;;;;;6135786;23;19975;-76
2022/07/31 15:06:36;;;;;;;;;;;21.00;99.90;;;;;;6136466;23;19943;-75
2022/07/31 15:09:02;;;;;;;;;;;20.90;99.90;;;;;;6135265;23;19947;-74
2022/07/31 15:11:28;;;;;;;;;;;21.00;99.90;;;;;;6135839;23;20255;-74
2022/07/31 15:13:53;;;;;;;;;;;21.00;99.90;;;;;;6160365;23;19983;-74
2022/07/31 15:16:19;;;;;;;;;;;21.10;99.90;;;;;;6134498;23;19986;-75
2022/07/31 15:18:47;;;;;;;;;;;20.90;99.90;;;;;;6135504;23;19947;-76
2022/07/31 15:21:16;;;;;;;;;;;20.90;99.90;;;;;;6135009;23;19912;-75
2022/07/31 15:23:46;;;;;;;;;;;20.90;99.90;;;;;;6186724;23;19908;-74
2022/07/31 15:26:12;;;;;;;;;;;20.80;99.90;;;;;;6134911;23;19908;-75
2022/07/31 15:28:38;;;;;;;;;;;20.80;99.90;;;;;;6134972;23;19991;-74
2022/07/31 15:31:04;;;;;;;;;;;20.80;99.90;;;;;;6159994;23;20370;-74
2022/07/31 15:33:29;;;;;;;;;;;20.80;99.90;;;;;;6135533;23;19979;-75
2022/07/31 15:36:01;;;;;;;;;;;20.80;99.90;;;;;;6158942;23;19961;-75
2022/07/31 15:38:29;;;;;;;;;;;20.80;99.90;;;;;;6135863;23;19920;-75
2022/07/31 15:40:55;;;;;;;;;;;20.80;99.90;;;;;;6135127;23;19912;-75
2022/07/31 15:43:21;;;;;;;;;;;20.80;99.90;;;;;;6135083;23;19908;-75
2022/07/31 15:45:46;;;;;;;;;;;20.80;99.90;;;;;;6134964;23;19912;-74
2022/07/31 15:48:22;;;;;;;;;;;20.70;99.90;;;;;;6134799;23;19908;-75
2022/07/31 15:51:17;;;;;;;;;;;20.70;99.90;;;;;;6152452;23;19918;-81
2022/07/31 15:53:42;;;;;;;;;;;20.70;99.90;;;;;;6134800;23;19985;-74
2022/07/31 15:56:17;;;;;;;;;;;20.60;99.90;;;;;;6187294;23;19978;-73
2022/07/31 15:58:55;;;;;;;;;;;20.60;99.90;;;;;;6164335;23;19982;-72
2022/07/31 16:01:21;;;;;;;;;;;20.70;99.90;;;;;;6160007;23;19916;-81
2022/07/31 16:03:47;;;;;;;;;;;20.90;99.90;;;;;;6162045;23;19908;-75
2022/07/31 16:06:12;;;;;;;;;;;20.90;99.90;;;;;;6188228;23;20377;-74
2022/07/31 16:08:38;;;;;;;;;;;20.90;99.90;;;;;;6137010;23;19912;-73
2022/07/31 16:11:03;;;;;;;;;;;20.90;99.90;;;;;;6137327;23;20302;-76
2022/07/31 16:13:30;;;;;;;;;;;20.90;99.90;;;;;;6161658;23;19945;-74
2022/07/31 16:15:55;;;;;;;;;;;20.80;99.90;;;;;;6161831;23;19912;-73
2022/07/31 16:18:21;;;;;;;;;;;20.90;99.90;;;;;;6137268;23;19912;-74
2022/07/31 16:20:47;;;;;;;;;;;20.90;99.90;;;;;;6137382;23;19919;-73
2022/07/31 16:23:12;;;;;;;;;;;21.00;99.90;;;;;;6137354;23;19919;-74
2022/07/31 16:25:38;;;;;;;;;;;20.90;99.90;;;;;;6137194;23;19912;-73
2022/07/31 16:28:03;;;;;;;;;;;20.90;99.90;;;;;;6161792;23;19962;-74
2022/07/31 16:30:29;;;;;;;;;;;20.80;99.90;;;;;;6161470;23;20333;-74
2022/07/31 16:32:55;;;;;;;;;;;20.70;99.90;;;;;;6137150;23;19912;-74
2022/07/31 16:35:21;;;;;;;;;;;20.50;99.90;;;;;;6161469;23;19912;-75
2022/07/31 16:37:46;;;;;;;;;;;20.40;99.90;;;;;;6161696;23;19986;-75
2022/07/31 16:40:12;;;;;;;;;;;20.40;99.90;;;;;;6112585;23;20226;-76
2022/07/31 16:42:38;;;;;;;;;;;20.30;99.90;;;;;;6137112;23;19920;-75
2022/07/31 16:45:04;;;;;;;;;;;20.30;99.90;;;;;;6137627;23;19919;-74
2022/07/31 16:47:30;;;;;;;;;;;20.30;99.90;;;;;;6137088;23;19912;-75
2022/07/31 16:49:55;;;;;;;;;;;20.30;99.90;;;;;;6161605;23;19963;-75
2022/07/31 16:52:21;;;;;;;;;;;20.20;99.90;;;;;;6161627;23;19987;-75
2022/07/31 16:54:47;;;;;;;;;;;20.20;99.90;;;;;;6137032;23;19912;-76
2022/07/31 16:57:13;;;;;;;;;;;20.20;99.90;;;;;;6136202;23;19912;-74
2022/07/31 16:59:39;;;;;;;;;;;20.10;99.90;;;;;;6161542;23;19912;-76
2022/07/31 17:02:05;;;;;;;;;;;20.10;99.90;;;;;;6136155;23;19958;-75
2022/07/31 17:04:31;;;;;;;;;;;20.10;99.90;;;;;;6136576;23;19920;-75
2022/07/31 17:06:56;;;;;;;;;;;20.00;99.90;;;;;;6136407;23;19908;-76
2022/07/31 17:09:22;;;;;;;;;;;20.00;99.90;;;;;;6187564;23;19952;-74
2022/07/31 17:11:49;;;;;;;;;;;20.00;99.90;;;;;;6161379;23;19908;-75
2022/07/31 17:14:15;;;;;;;;;;;20.00;99.90;;;;;;6136833;23;20326;-74
2022/07/31 17:16:41;;;;;;;;;;;20.00;99.90;;;;;;6136133;23;20346;-74